sensor_id;sensor_type;location;lat;lon;timestamp;P1;durP1;ratioP1;P2;durP2;ratioP2
53927;SDS011;39837;47.630;18.822;2022-08-19T00:01:31;5.97;;;3.67;;
53927;SDS011;39837;47.630;18.822;2022-08-19T00:04:16;3.33;;;2.92;;
53927;SDS011;39837;47.630;18.822;2022-08-19T00:07:02;3.97;;;3.47;;
53927;SDS011;39837;47.630;18.822;2022-08-19T00:09:47;13.90;;;3.80;;
53927;SDS011;39837;47.630;18.822;2022-08-19T00:12:31;4.38;;;3.58;;
53927;SDS011;39837;47.630;18.822;2022-08-19T00:15:17;6.45;;;3.50;;
53927;SDS011;39837;47.630;18.822;2022-08-19T00:18:03;4.05;;;3.67;;
53927;SDS011;39837;47.630;18.822;2022-08-19T00:20:48;3.67;;;2.97;;
53927;SDS011;39837;47.630;18.822;2022-08-19T00:23:32;7.43;;;3.33;;
53927;SDS011;39837;47.630;18.822;2022-08-19T00:26:18;3.85;;;3.35;;
53927;SDS011;39837;47.630;18.822;2022-08-19T00:29:03;4.73;;;3.37;;
53927;SDS011;39837;47.630;18.822;2022-08-19T00:31:48;3.88;;;3.50;;
53927;SDS011;39837;47.630;18.822;2022-08-19T00:34:33;4.43;;;4.03;;
53927;SDS011;39837;47.630;18.822;2022-08-19T00:37:17;4.75;;;3.97;;
53927;SDS011;39837;47.630;18.822;2022-08-19T00:42:47;6.03;;;3.42;;
53927;SDS011;39837;47.630;18.822;2022-08-19T00:45:32;4.00;;;3.60;;
53927;SDS011;39837;47.630;18.822;2022-08-19T00:48:18;4.65;;;4.00;;
53927;SDS011;39837;47.630;18.822;2022-08-19T00:51:03;5.72;;;3.85;;
53927;SDS011;39837;47.630;18.822;2022-08-19T00:53:48;10.85;;;3.08;;
53927;SDS011;39837;47.630;18.822;2022-08-19T00:56:32;5.07;;;4.00;;
53927;SDS011;39837;47.630;18.822;2022-08-19T00:59:17;4.90;;;4.43;;
53927;SDS011;39837;47.630;18.822;2022-08-19T01:02:02;6.15;;;4.55;;
53927;SDS011;39837;47.630;18.822;2022-08-19T01:04:46;6.35;;;3.63;;
53927;SDS011;39837;47.630;18.822;2022-08-19T01:07:30;5.68;;;4.05;;
53927;SDS011;39837;47.630;18.822;2022-08-19T01:10:16;8.63;;;3.88;;
53927;SDS011;39837;47.630;18.822;2022-08-19T01:13:02;6.13;;;3.90;;
53927;SDS011;39837;47.630;18.822;2022-08-19T01:15:55;6.72;;;4.30;;
53927;SDS011;39837;47.630;18.822;2022-08-19T01:18:41;4.75;;;4.28;;
53927;SDS011;39837;47.630;18.822;2022-08-19T01:24:09;5.80;;;4.18;;
53927;SDS011;39837;47.630;18.822;2022-08-19T01:26:53;4.63;;;4.00;;
53927;SDS011;39837;47.630;18.822;2022-08-19T01:29:39;5.05;;;3.97;;
53927;SDS011;39837;47.630;18.822;2022-08-19T01:32:25;7.60;;;3.90;;
53927;SDS011;39837;47.630;18.822;2022-08-19T01:35:09;4.22;;;3.90;;
53927;SDS011;39837;47.630;18.822;2022-08-19T01:40:40;4.18;;;3.75;;
53927;SDS011;39837;47.630;18.822;2022-08-19T01:43:25;4.32;;;3.92;;
53927;SDS011;39837;47.630;18.822;2022-08-19T01:46:10;4.25;;;3.85;;
53927;SDS011;39837;47.630;18.822;2022-08-19T01:48:54;11.95;;;4.40;;
53927;SDS011;39837;47.630;18.822;2022-08-19T01:51:39;5.72;;;4.18;;
53927;SDS011;39837;47.630;18.822;2022-08-19T01:54:23;9.07;;;4.65;;
53927;SDS011;39837;47.630;18.822;2022-08-19T01:57:08;3.92;;;3.58;;
53927;SDS011;39837;47.630;18.822;2022-08-19T01:59:54;5.57;;;3.63;;
53927;SDS011;39837;47.630;18.822;2022-08-19T02:02:40;4.47;;;4.07;;
53927;SDS011;39837;47.630;18.822;2022-08-19T02:05:24;9.82;;;4.07;;
53927;SDS011;39837;47.630;18.822;2022-08-19T02:08:09;4.20;;;3.83;;
53927;SDS011;39837;47.630;18.822;2022-08-19T02:10:53;5.05;;;4.18;;
53927;SDS011;39837;47.630;18.822;2022-08-19T02:13:37;4.28;;;3.88;;
53927;SDS011;39837;47.630;18.822;2022-08-19T02:16:21;3.88;;;3.58;;
53927;SDS011;39837;47.630;18.822;2022-08-19T02:19:06;4.38;;;3.95;;
53927;SDS011;39837;47.630;18.822;2022-08-19T02:21:50;3.70;;;3.38;;
53927;SDS011;39837;47.630;18.822;2022-08-19T02:24:34;4.82;;;4.10;;
53927;SDS011;39837;47.630;18.822;2022-08-19T02:27:18;5.07;;;4.53;;
53927;SDS011;39837;47.630;18.822;2022-08-19T02:30:03;4.40;;;4.00;;
53927;SDS011;39837;47.630;18.822;2022-08-19T02:32:54;4.65;;;3.97;;
53927;SDS011;39837;47.630;18.822;2022-08-19T02:35:40;5.50;;;4.65;;
53927;SDS011;39837;47.630;18.822;2022-08-19T02:38:25;4.72;;;4.30;;
53927;SDS011;39837;47.630;18.822;2022-08-19T02:41:16;6.20;;;3.72;;
53927;SDS011;39837;47.630;18.822;2022-08-19T02:44:03;6.93;;;3.85;;
53927;SDS011;39837;47.630;18.822;2022-08-19T02:49:33;4.32;;;3.92;;
53927;SDS011;39837;47.630;18.822;2022-08-19T02:52:17;4.70;;;4.20;;
53927;SDS011;39837;47.630;18.822;2022-08-19T02:55:01;5.43;;;4.90;;
53927;SDS011;39837;47.630;18.822;2022-08-19T02:57:47;4.13;;;3.83;;
53927;SDS011;39837;47.630;18.822;2022-08-19T03:00:31;4.53;;;4.15;;
53927;SDS011;39837;47.630;18.822;2022-08-19T03:03:16;3.90;;;3.60;;
53927;SDS011;39837;47.630;18.822;2022-08-19T03:06:11;8.30;;;4.78;;
53927;SDS011;39837;47.630;18.822;2022-08-19T03:08:57;4.70;;;4.30;;
53927;SDS011;39837;47.630;18.822;2022-08-19T03:11:41;5.88;;;4.00;;
53927;SDS011;39837;47.630;18.822;2022-08-19T03:14:25;5.53;;;4.07;;
53927;SDS011;39837;47.630;18.822;2022-08-19T03:17:09;4.65;;;3.97;;
53927;SDS011;39837;47.630;18.822;2022-08-19T03:19:53;5.70;;;4.30;;
53927;SDS011;39837;47.630;18.822;2022-08-19T03:22:37;6.30;;;4.75;;
53927;SDS011;39837;47.630;18.822;2022-08-19T03:25:21;6.25;;;4.63;;
53927;SDS011;39837;47.630;18.822;2022-08-19T03:28:05;12.55;;;4.97;;
53927;SDS011;39837;47.630;18.822;2022-08-19T03:30:58;4.78;;;4.07;;
53927;SDS011;39837;47.630;18.822;2022-08-19T03:33:44;5.78;;;4.57;;
53927;SDS011;39837;47.630;18.822;2022-08-19T03:36:29;6.55;;;4.07;;
53927;SDS011;39837;47.630;18.822;2022-08-19T03:39:13;9.40;;;4.10;;
53927;SDS011;39837;47.630;18.822;2022-08-19T03:41:57;6.10;;;4.57;;
53927;SDS011;39837;47.630;18.822;2022-08-19T03:44:45;6.57;;;4.10;;
53927;SDS011;39837;47.630;18.822;2022-08-19T03:47:29;8.13;;;4.03;;
53927;SDS011;39837;47.630;18.822;2022-08-19T03:50:14;6.10;;;4.57;;
53927;SDS011;39837;47.630;18.822;2022-08-19T03:52:58;5.53;;;4.65;;
53927;SDS011;39837;47.630;18.822;2022-08-19T03:55:42;4.70;;;4.25;;
53927;SDS011;39837;47.630;18.822;2022-08-19T03:58:28;4.47;;;3.85;;
53927;SDS011;39837;47.630;18.822;2022-08-19T04:01:14;5.47;;;4.10;;
53927;SDS011;39837;47.630;18.822;2022-08-19T04:04:00;8.25;;;4.47;;
53927;SDS011;39837;47.630;18.822;2022-08-19T04:06:44;7.32;;;4.20;;
53927;SDS011;39837;47.630;18.822;2022-08-19T04:09:30;6.15;;;4.75;;
53927;SDS011;39837;47.630;18.822;2022-08-19T04:12:16;5.13;;;4.63;;
53927;SDS011;39837;47.630;18.822;2022-08-19T04:15:00;6.28;;;3.95;;
53927;SDS011;39837;47.630;18.822;2022-08-19T04:17:45;4.82;;;4.25;;
53927;SDS011;39837;47.630;18.822;2022-08-19T04:23:14;4.68;;;4.05;;
53927;SDS011;39837;47.630;18.822;2022-08-19T04:25:57;6.03;;;5.20;;
53927;SDS011;39837;47.630;18.822;2022-08-19T04:28:42;5.50;;;4.45;;
53927;SDS011;39837;47.630;18.822;2022-08-19T04:31:28;7.63;;;3.90;;
53927;SDS011;39837;47.630;18.822;2022-08-19T04:34:15;5.03;;;3.85;;
53927;SDS011;39837;47.630;18.822;2022-08-19T04:37:00;4.85;;;4.40;;
53927;SDS011;39837;47.630;18.822;2022-08-19T04:39:44;6.00;;;4.65;;
53927;SDS011;39837;47.630;18.822;2022-08-19T04:42:47;7.47;;;4.43;;
53927;SDS011;39837;47.630;18.822;2022-08-19T04:45:31;4.13;;;3.83;;
53927;SDS011;39837;47.630;18.822;2022-08-19T04:48:15;4.32;;;3.92;;
53927;SDS011;39837;47.630;18.822;2022-08-19T04:50:58;4.47;;;4.07;;
53927;SDS011;39837;47.630;18.822;2022-08-19T04:53:42;10.65;;;4.85;;
53927;SDS011;39837;47.630;18.822;2022-08-19T04:56:26;8.98;;;5.03;;
53927;SDS011;39837;47.630;18.822;2022-08-19T04:59:11;4.10;;;3.80;;
53927;SDS011;39837;47.630;18.822;2022-08-19T05:01:55;7.50;;;4.35;;
53927;SDS011;39837;47.630;18.822;2022-08-19T05:04:39;5.80;;;4.05;;
53927;SDS011;39837;47.630;18.822;2022-08-19T05:07:23;4.82;;;4.22;;
53927;SDS011;39837;47.630;18.822;2022-08-19T05:10:07;8.05;;;4.00;;
53927;SDS011;39837;47.630;18.822;2022-08-19T05:12:52;7.30;;;5.25;;
53927;SDS011;39837;47.630;18.822;2022-08-19T05:15:36;5.35;;;3.90;;
53927;SDS011;39837;47.630;18.822;2022-08-19T05:18:20;9.57;;;4.07;;
53927;SDS011;39837;47.630;18.822;2022-08-19T05:21:22;4.45;;;3.97;;
53927;SDS011;39837;47.630;18.822;2022-08-19T05:24:26;4.03;;;3.67;;
53927;SDS011;39837;47.630;18.822;2022-08-19T05:27:10;10.13;;;4.75;;
53927;SDS011;39837;47.630;18.822;2022-08-19T05:29:54;4.40;;;4.03;;
53927;SDS011;39837;47.630;18.822;2022-08-19T05:32:38;5.32;;;3.90;;
53927;SDS011;39837;47.630;18.822;2022-08-19T05:35:23;11.77;;;4.22;;
53927;SDS011;39837;47.630;18.822;2022-08-19T05:38:09;4.35;;;3.65;;
53927;SDS011;39837;47.630;18.822;2022-08-19T05:43:38;4.13;;;3.83;;
53927;SDS011;39837;47.630;18.822;2022-08-19T05:46:22;7.30;;;3.80;;
53927;SDS011;39837;47.630;18.822;2022-08-19T05:49:07;3.90;;;3.47;;
53927;SDS011;39837;47.630;18.822;2022-08-19T05:51:51;4.00;;;3.53;;
53927;SDS011;39837;47.630;18.822;2022-08-19T05:54:39;5.28;;;3.67;;
53927;SDS011;39837;47.630;18.822;2022-08-19T05:57:24;5.07;;;3.35;;
53927;SDS011;39837;47.630;18.822;2022-08-19T06:00:08;7.35;;;4.10;;
53927;SDS011;39837;47.630;18.822;2022-08-19T06:02:54;6.80;;;4.10;;
53927;SDS011;39837;47.630;18.822;2022-08-19T06:05:40;5.47;;;3.55;;
53927;SDS011;39837;47.630;18.822;2022-08-19T06:08:25;5.75;;;3.50;;
53927;SDS011;39837;47.630;18.822;2022-08-19T06:11:21;9.52;;;4.25;;
53927;SDS011;39837;47.630;18.822;2022-08-19T06:14:29;8.25;;;3.58;;
53927;SDS011;39837;47.630;18.822;2022-08-19T06:17:14;3.92;;;3.35;;
53927;SDS011;39837;47.630;18.822;2022-08-19T06:19:59;5.43;;;3.25;;
53927;SDS011;39837;47.630;18.822;2022-08-19T06:22:44;3.78;;;3.47;;
53927;SDS011;39837;47.630;18.822;2022-08-19T06:28:12;3.72;;;3.20;;
53927;SDS011;39837;47.630;18.822;2022-08-19T06:30:56;13.90;;;3.05;;
53927;SDS011;39837;47.630;18.822;2022-08-19T06:33:40;6.07;;;3.33;;
53927;SDS011;39837;47.630;18.822;2022-08-19T06:36:27;4.43;;;3.40;;
53927;SDS011;39837;47.630;18.822;2022-08-19T06:39:21;6.10;;;3.47;;
53927;SDS011;39837;47.630;18.822;2022-08-19T06:42:08;5.53;;;3.22;;
53927;SDS011;39837;47.630;18.822;2022-08-19T06:44:55;8.95;;;4.28;;
53927;SDS011;39837;47.630;18.822;2022-08-19T06:47:39;2.92;;;2.70;;
53927;SDS011;39837;47.630;18.822;2022-08-19T06:50:23;3.38;;;2.70;;
53927;SDS011;39837;47.630;18.822;2022-08-19T06:53:07;8.10;;;3.17;;
53927;SDS011;39837;47.630;18.822;2022-08-19T06:55:51;9.65;;;2.70;;
53927;SDS011;39837;47.630;18.822;2022-08-19T06:58:44;3.70;;;2.55;;
53927;SDS011;39837;47.630;18.822;2022-08-19T07:01:28;7.05;;;2.95;;
53927;SDS011;39837;47.630;18.822;2022-08-19T07:04:13;3.15;;;2.67;;
53927;SDS011;39837;47.630;18.822;2022-08-19T07:07:09;10.52;;;2.72;;
53927;SDS011;39837;47.630;18.822;2022-08-19T07:09:57;3.53;;;2.70;;
53927;SDS011;39837;47.630;18.822;2022-08-19T07:12:40;2.97;;;2.75;;
53927;SDS011;39837;47.630;18.822;2022-08-19T07:18:09;3.17;;;2.85;;
53927;SDS011;39837;47.630;18.822;2022-08-19T07:21:01;7.93;;;2.67;;
53927;SDS011;39837;47.630;18.822;2022-08-19T07:23:56;2.83;;;2.35;;
53927;SDS011;39837;47.630;18.822;2022-08-19T07:26:43;6.10;;;2.53;;
53927;SDS011;39837;47.630;18.822;2022-08-19T07:29:27;4.15;;;2.70;;
53927;SDS011;39837;47.630;18.822;2022-08-19T07:32:16;4.22;;;2.72;;
53927;SDS011;39837;47.630;18.822;2022-08-19T07:35:00;2.65;;;2.45;;
53927;SDS011;39837;47.630;18.822;2022-08-19T07:37:46;3.90;;;3.05;;
53927;SDS011;39837;47.630;18.822;2022-08-19T07:40:31;3.53;;;2.40;;
53927;SDS011;39837;47.630;18.822;2022-08-19T07:43:15;3.25;;;2.78;;
53927;SDS011;39837;47.630;18.822;2022-08-19T07:45:59;2.65;;;2.40;;
53927;SDS011;39837;47.630;18.822;2022-08-19T07:48:43;3.70;;;2.75;;
53927;SDS011;39837;47.630;18.822;2022-08-19T07:51:30;4.80;;;2.85;;
53927;SDS011;39837;47.630;18.822;2022-08-19T07:54:15;2.42;;;2.22;;
53927;SDS011;39837;47.630;18.822;2022-08-19T07:56:59;2.47;;;2.28;;
53927;SDS011;39837;47.630;18.822;2022-08-19T07:59:43;3.08;;;2.20;;
53927;SDS011;39837;47.630;18.822;2022-08-19T08:02:27;10.35;;;2.58;;
53927;SDS011;39837;47.630;18.822;2022-08-19T08:05:11;2.38;;;2.15;;
53927;SDS011;39837;47.630;18.822;2022-08-19T08:08:14;2.60;;;2.40;;
53927;SDS011;39837;47.630;18.822;2022-08-19T08:11:17;2.70;;;2.50;;
53927;SDS011;39837;47.630;18.822;2022-08-19T08:14:03;2.28;;;2.17;;
53927;SDS011;39837;47.630;18.822;2022-08-19T08:16:48;3.00;;;2.17;;
53927;SDS011;39837;47.630;18.822;2022-08-19T08:19:33;4.63;;;2.33;;
53927;SDS011;39837;47.630;18.822;2022-08-19T08:22:19;3.13;;;2.67;;
53927;SDS011;39837;47.630;18.822;2022-08-19T08:25:23;2.45;;;2.25;;
53927;SDS011;39837;47.630;18.822;2022-08-19T08:28:07;3.90;;;2.30;;
53927;SDS011;39837;47.630;18.822;2022-08-19T08:30:52;3.80;;;2.20;;
53927;SDS011;39837;47.630;18.822;2022-08-19T08:33:36;1.88;;;1.77;;
53927;SDS011;39837;47.630;18.822;2022-08-19T08:39:04;1.90;;;1.80;;
53927;SDS011;39837;47.630;18.822;2022-08-19T08:44:42;7.70;;;2.90;;
53927;SDS011;39837;47.630;18.822;2022-08-19T08:47:32;5.88;;;2.05;;
53927;SDS011;39837;47.630;18.822;2022-08-19T08:50:21;1.98;;;1.45;;
53927;SDS011;39837;47.630;18.822;2022-08-19T08:53:22;3.35;;;2.15;;
53927;SDS011;39837;47.630;18.822;2022-08-19T08:56:07;62.33;;;5.85;;
53927;SDS011;39837;47.630;18.822;2022-08-19T08:58:59;5.78;;;2.40;;
53927;SDS011;39837;47.630;18.822;2022-08-19T09:01:53;3.13;;;2.25;;
53927;SDS011;39837;47.630;18.822;2022-08-19T09:04:37;1.83;;;1.73;;
53927;SDS011;39837;47.630;18.822;2022-08-19T09:07:41;3.50;;;2.63;;
53927;SDS011;39837;47.630;18.822;2022-08-19T09:10:51;1.83;;;1.70;;
53927;SDS011;39837;47.630;18.822;2022-08-19T09:16:36;2.13;;;1.90;;
53927;SDS011;39837;47.630;18.822;2022-08-19T09:19:22;2.55;;;1.85;;
53927;SDS011;39837;47.630;18.822;2022-08-19T09:22:06;3.42;;;2.15;;
53927;SDS011;39837;47.630;18.822;2022-08-19T09:24:53;2.17;;;2.05;;
53927;SDS011;39837;47.630;18.822;2022-08-19T09:27:38;14.85;;;2.10;;
53927;SDS011;39837;47.630;18.822;2022-08-19T09:30:25;2.85;;;2.53;;
53927;SDS011;39837;47.630;18.822;2022-08-19T09:33:11;3.30;;;2.30;;
53927;SDS011;39837;47.630;18.822;2022-08-19T09:36:05;2.78;;;1.80;;
53927;SDS011;39837;47.630;18.822;2022-08-19T09:38:51;2.75;;;1.55;;
53927;SDS011;39837;47.630;18.822;2022-08-19T09:41:35;4.45;;;1.95;;
53927;SDS011;39837;47.630;18.822;2022-08-19T09:44:19;4.28;;;2.08;;
53927;SDS011;39837;47.630;18.822;2022-08-19T09:47:03;1.73;;;1.55;;
53927;SDS011;39837;47.630;18.822;2022-08-19T09:49:48;3.38;;;1.45;;
53927;SDS011;39837;47.630;18.822;2022-08-19T09:52:32;1.83;;;1.73;;
53927;SDS011;39837;47.630;18.822;2022-08-19T09:55:17;6.22;;;1.80;;
53927;SDS011;39837;47.630;18.822;2022-08-19T09:58:01;1.70;;;1.60;;
53927;SDS011;39837;47.630;18.822;2022-08-19T10:00:45;4.05;;;2.00;;
53927;SDS011;39837;47.630;18.822;2022-08-19T10:03:31;8.38;;;2.22;;
53927;SDS011;39837;47.630;18.822;2022-08-19T10:06:15;5.85;;;2.17;;
53927;SDS011;39837;47.630;18.822;2022-08-19T10:09:00;2.53;;;2.08;;
53927;SDS011;39837;47.630;18.822;2022-08-19T10:11:46;2.20;;;2.03;;
53927;SDS011;39837;47.630;18.822;2022-08-19T10:14:31;2.85;;;2.10;;
53927;SDS011;39837;47.630;18.822;2022-08-19T10:17:16;2.72;;;2.05;;
53927;SDS011;39837;47.630;18.822;2022-08-19T10:20:01;2.40;;;2.08;;
53927;SDS011;39837;47.630;18.822;2022-08-19T10:22:47;4.60;;;2.08;;
53927;SDS011;39837;47.630;18.822;2022-08-19T10:25:31;4.25;;;2.22;;
53927;SDS011;39837;47.630;18.822;2022-08-19T10:28:17;3.63;;;2.17;;
53927;SDS011;39837;47.630;18.822;2022-08-19T10:31:05;10.40;;;2.75;;
53927;SDS011;39837;47.630;18.822;2022-08-19T10:33:50;2.17;;;1.98;;
53927;SDS011;39837;47.630;18.822;2022-08-19T10:36:41;18.58;;;2.20;;
53927;SDS011;39837;47.630;18.822;2022-08-19T10:39:25;4.82;;;2.10;;
53927;SDS011;39837;47.630;18.822;2022-08-19T10:42:10;2.25;;;1.90;;
53927;SDS011;39837;47.630;18.822;2022-08-19T10:44:56;3.53;;;2.40;;
53927;SDS011;39837;47.630;18.822;2022-08-19T10:50:24;3.65;;;2.35;;
53927;SDS011;39837;47.630;18.822;2022-08-19T10:53:27;7.60;;;2.15;;
53927;SDS011;39837;47.630;18.822;2022-08-19T10:56:12;10.02;;;2.10;;
53927;SDS011;39837;47.630;18.822;2022-08-19T10:59:15;3.90;;;2.47;;
53927;SDS011;39837;47.630;18.822;2022-08-19T11:02:00;3.42;;;2.17;;
53927;SDS011;39837;47.630;18.822;2022-08-19T11:04:47;8.65;;;2.55;;
53927;SDS011;39837;47.630;18.822;2022-08-19T11:07:33;13.60;;;2.67;;
53927;SDS011;39837;47.630;18.822;2022-08-19T11:10:17;2.00;;;1.90;;
53927;SDS011;39837;47.630;18.822;2022-08-19T11:13:02;3.15;;;2.90;;
53927;SDS011;39837;47.630;18.822;2022-08-19T11:15:46;1.98;;;1.88;;
53927;SDS011;39837;47.630;18.822;2022-08-19T11:18:31;2.33;;;2.10;;
53927;SDS011;39837;47.630;18.822;2022-08-19T11:21:16;2.08;;;1.98;;
53927;SDS011;39837;47.630;18.822;2022-08-19T11:24:12;5.68;;;2.20;;
53927;SDS011;39837;47.630;18.822;2022-08-19T11:27:06;3.15;;;2.08;;
53927;SDS011;39837;47.630;18.822;2022-08-19T11:29:52;6.60;;;2.35;;
53927;SDS011;39837;47.630;18.822;2022-08-19T11:32:37;3.33;;;2.20;;
53927;SDS011;39837;47.630;18.822;2022-08-19T11:35:21;3.60;;;2.53;;
53927;SDS011;39837;47.630;18.822;2022-08-19T11:38:06;3.90;;;1.80;;
53927;SDS011;39837;47.630;18.822;2022-08-19T11:40:54;2.90;;;1.95;;
53927;SDS011;39837;47.630;18.822;2022-08-19T11:43:42;9.38;;;2.00;;
53927;SDS011;39837;47.630;18.822;2022-08-19T11:49:14;2.00;;;1.75;;
53927;SDS011;39837;47.630;18.822;2022-08-19T11:52:02;2.72;;;2.28;;
53927;SDS011;39837;47.630;18.822;2022-08-19T11:54:46;4.30;;;2.28;;
53927;SDS011;39837;47.630;18.822;2022-08-19T11:57:30;2.50;;;2.30;;
53927;SDS011;39837;47.630;18.822;2022-08-19T12:00:14;2.47;;;2.28;;
53927;SDS011;39837;47.630;18.822;2022-08-19T12:02:58;2.63;;;2.20;;
53927;SDS011;39837;47.630;18.822;2022-08-19T12:05:43;6.47;;;2.10;;
53927;SDS011;39837;47.630;18.822;2022-08-19T12:08:27;3.13;;;2.58;;
53927;SDS011;39837;47.630;18.822;2022-08-19T12:11:12;2.75;;;2.55;;
53927;SDS011;39837;47.630;18.822;2022-08-19T12:13:57;7.32;;;3.25;;
53927;SDS011;39837;47.630;18.822;2022-08-19T12:16:43;2.65;;;2.45;;
53927;SDS011;39837;47.630;18.822;2022-08-19T12:19:28;4.85;;;3.30;;
53927;SDS011;39837;47.630;18.822;2022-08-19T12:22:12;7.30;;;2.88;;
53927;SDS011;39837;47.630;18.822;2022-08-19T12:24:56;4.53;;;3.10;;
53927;SDS011;39837;47.630;18.822;2022-08-19T12:27:42;4.45;;;3.45;;
53927;SDS011;39837;47.630;18.822;2022-08-19T12:30:26;2.60;;;2.40;;
53927;SDS011;39837;47.630;18.822;2022-08-19T12:33:10;7.45;;;3.88;;
53927;SDS011;39837;47.630;18.822;2022-08-19T12:35:55;12.95;;;4.43;;
53927;SDS011;39837;47.630;18.822;2022-08-19T12:38:44;9.63;;;4.13;;
53927;SDS011;39837;47.630;18.822;2022-08-19T12:41:28;19.63;;;4.60;;
53927;SDS011;39837;47.630;18.822;2022-08-19T12:44:12;5.75;;;4.10;;
53927;SDS011;39837;47.630;18.822;2022-08-19T12:46:56;5.38;;;4.25;;
53927;SDS011;39837;47.630;18.822;2022-08-19T12:49:41;6.32;;;3.92;;
53927;SDS011;39837;47.630;18.822;2022-08-19T12:52:26;5.53;;;4.50;;
53927;SDS011;39837;47.630;18.822;2022-08-19T12:55:10;6.13;;;4.70;;
53927;SDS011;39837;47.630;18.822;2022-08-19T12:57:55;13.60;;;4.63;;
53927;SDS011;39837;47.630;18.822;2022-08-19T13:00:40;5.72;;;5.13;;
53927;SDS011;39837;47.630;18.822;2022-08-19T13:03:24;11.27;;;6.00;;
53927;SDS011;39837;47.630;18.822;2022-08-19T13:06:12;17.58;;;4.97;;
53927;SDS011;39837;47.630;18.822;2022-08-19T13:08:59;5.70;;;4.70;;
53927;SDS011;39837;47.630;18.822;2022-08-19T13:11:43;8.90;;;4.97;;
53927;SDS011;39837;47.630;18.822;2022-08-19T13:14:27;5.90;;;5.28;;
53927;SDS011;39837;47.630;18.822;2022-08-19T13:17:14;11.55;;;5.13;;
53927;SDS011;39837;47.630;18.822;2022-08-19T13:22:42;3.65;;;3.00;;
53927;SDS011;39837;47.630;18.822;2022-08-19T13:25:28;4.53;;;3.33;;
53927;SDS011;39837;47.630;18.822;2022-08-19T13:28:12;10.20;;;3.67;;
53927;SDS011;39837;47.630;18.822;2022-08-19T13:30:56;17.85;;;4.82;;
53927;SDS011;39837;47.630;18.822;2022-08-19T13:33:59;4.63;;;4.15;;
53927;SDS011;39837;47.630;18.822;2022-08-19T13:36:43;3.22;;;1.92;;
53927;SDS011;39837;47.630;18.822;2022-08-19T13:39:27;9.63;;;2.20;;
53927;SDS011;39837;47.630;18.822;2022-08-19T13:42:11;4.32;;;2.35;;
53927;SDS011;39837;47.630;18.822;2022-08-19T13:44:57;9.00;;;2.50;;
53927;SDS011;39837;47.630;18.822;2022-08-19T13:47:42;1.60;;;1.50;;
53927;SDS011;39837;47.630;18.822;2022-08-19T13:50:29;4.00;;;1.83;;
53927;SDS011;39837;47.630;18.822;2022-08-19T13:53:15;10.85;;;1.83;;
53927;SDS011;39837;47.630;18.822;2022-08-19T13:55:59;9.60;;;2.42;;
53927;SDS011;39837;47.630;18.822;2022-08-19T13:58:43;7.90;;;2.63;;
53927;SDS011;39837;47.630;18.822;2022-08-19T14:01:27;6.35;;;2.35;;
53927;SDS011;39837;47.630;18.822;2022-08-19T14:04:11;10.90;;;2.53;;
53927;SDS011;39837;47.630;18.822;2022-08-19T14:06:55;8.63;;;2.15;;
53927;SDS011;39837;47.630;18.822;2022-08-19T14:09:39;5.45;;;2.20;;
53927;SDS011;39837;47.630;18.822;2022-08-19T14:12:24;6.45;;;2.20;;
53927;SDS011;39837;47.630;18.822;2022-08-19T14:15:09;6.43;;;2.72;;
53927;SDS011;39837;47.630;18.822;2022-08-19T14:17:54;4.53;;;2.08;;
53927;SDS011;39837;47.630;18.822;2022-08-19T14:20:38;8.57;;;1.77;;
53927;SDS011;39837;47.630;18.822;2022-08-19T14:23:22;8.85;;;2.33;;
53927;SDS011;39837;47.630;18.822;2022-08-19T14:26:07;3.53;;;2.22;;
53927;SDS011;39837;47.630;18.822;2022-08-19T14:28:56;21.27;;;2.08;;
53927;SDS011;39837;47.630;18.822;2022-08-19T14:31:41;10.50;;;2.15;;
53927;SDS011;39837;47.630;18.822;2022-08-19T14:34:27;4.20;;;1.85;;
53927;SDS011;39837;47.630;18.822;2022-08-19T14:37:12;8.68;;;2.13;;
53927;SDS011;39837;47.630;18.822;2022-08-19T14:40:01;17.92;;;1.95;;
53927;SDS011;39837;47.630;18.822;2022-08-19T14:42:46;3.60;;;1.88;;
53927;SDS011;39837;47.630;18.822;2022-08-19T14:45:32;5.10;;;2.17;;
53927;SDS011;39837;47.630;18.822;2022-08-19T14:48:19;11.43;;;1.95;;
53927;SDS011;39837;47.630;18.822;2022-08-19T14:51:05;9.77;;;2.03;;
53927;SDS011;39837;47.630;18.822;2022-08-19T14:53:49;5.28;;;1.85;;
53927;SDS011;39837;47.630;18.822;2022-08-19T14:56:34;1.10;;;1.10;;
53927;SDS011;39837;47.630;18.822;2022-08-19T14:59:18;1.50;;;1.40;;
53927;SDS011;39837;47.630;18.822;2022-08-19T15:02:03;10.60;;;2.00;;
53927;SDS011;39837;47.630;18.822;2022-08-19T15:04:47;4.47;;;2.08;;
53927;SDS011;39837;47.630;18.822;2022-08-19T15:07:31;5.30;;;1.77;;
53927;SDS011;39837;47.630;18.822;2022-08-19T15:10:15;9.45;;;2.08;;
53927;SDS011;39837;47.630;18.822;2022-08-19T15:12:59;1.48;;;1.30;;
53927;SDS011;39837;47.630;18.822;2022-08-19T15:15:43;5.23;;;2.23;;
53927;SDS011;39837;47.630;18.822;2022-08-19T15:18:29;17.77;;;1.85;;
53927;SDS011;39837;47.630;18.822;2022-08-19T15:21:13;24.00;;;3.03;;
53927;SDS011;39837;47.630;18.822;2022-08-19T15:24:00;20.73;;;2.70;;
53927;SDS011;39837;47.630;18.822;2022-08-19T15:26:44;2.22;;;1.17;;
53927;SDS011;39837;47.630;18.822;2022-08-19T15:29:29;4.90;;;1.63;;
53927;SDS011;39837;47.630;18.822;2022-08-19T15:32:13;5.68;;;1.67;;
53927;SDS011;39837;47.630;18.822;2022-08-19T15:34:57;11.15;;;1.45;;
53927;SDS011;39837;47.630;18.822;2022-08-19T15:37:41;12.98;;;1.33;;
53927;SDS011;39837;47.630;18.822;2022-08-19T15:40:26;12.67;;;1.63;;
53927;SDS011;39837;47.630;18.822;2022-08-19T15:43:10;7.40;;;1.48;;
53927;SDS011;39837;47.630;18.822;2022-08-19T15:45:54;22.08;;;1.88;;
53927;SDS011;39837;47.630;18.822;2022-08-19T15:48:38;2.72;;;1.65;;
53927;SDS011;39837;47.630;18.822;2022-08-19T15:51:22;10.40;;;2.08;;
53927;SDS011;39837;47.630;18.822;2022-08-19T15:54:08;6.10;;;2.28;;
53927;SDS011;39837;47.630;18.822;2022-08-19T15:56:53;15.65;;;2.00;;
53927;SDS011;39837;47.630;18.822;2022-08-19T15:59:56;6.70;;;1.52;;
53927;SDS011;39837;47.630;18.822;2022-08-19T16:02:59;21.60;;;2.47;;
53927;SDS011;39837;47.630;18.822;2022-08-19T16:06:03;9.00;;;1.65;;
53927;SDS011;39837;47.630;18.822;2022-08-19T16:09:10;6.45;;;1.85;;
53927;SDS011;39837;47.630;18.822;2022-08-19T16:11:56;8.20;;;1.92;;
53927;SDS011;39837;47.630;18.822;2022-08-19T16:14:42;2.28;;;1.50;;
53927;SDS011;39837;47.630;18.822;2022-08-19T16:17:26;7.22;;;1.83;;
53927;SDS011;39837;47.630;18.822;2022-08-19T16:20:10;9.73;;;1.95;;
53927;SDS011;39837;47.630;18.822;2022-08-19T16:22:55;17.40;;;3.00;;
53927;SDS011;39837;47.630;18.822;2022-08-19T16:25:41;10.88;;;2.33;;
53927;SDS011;39837;47.630;18.822;2022-08-19T16:28:25;10.23;;;2.10;;
53927;SDS011;39837;47.630;18.822;2022-08-19T16:31:11;10.57;;;1.90;;
53927;SDS011;39837;47.630;18.822;2022-08-19T16:33:56;3.92;;;1.52;;
53927;SDS011;39837;47.630;18.822;2022-08-19T16:36:40;9.95;;;1.88;;
53927;SDS011;39837;47.630;18.822;2022-08-19T16:39:25;11.60;;;1.63;;
53927;SDS011;39837;47.630;18.822;2022-08-19T16:42:10;13.68;;;1.85;;
53927;SDS011;39837;47.630;18.822;2022-08-19T16:44:55;9.52;;;2.03;;
53927;SDS011;39837;47.630;18.822;2022-08-19T16:50:24;1.50;;;1.17;;
53927;SDS011;39837;47.630;18.822;2022-08-19T16:53:07;1.40;;;1.30;;
53927;SDS011;39837;47.630;18.822;2022-08-19T16:55:51;11.02;;;2.30;;
53927;SDS011;39837;47.630;18.822;2022-08-19T16:58:36;2.80;;;1.30;;
53927;SDS011;39837;47.630;18.822;2022-08-19T17:01:20;2.20;;;1.50;;
53927;SDS011;39837;47.630;18.822;2022-08-19T17:04:05;7.10;;;1.80;;
53927;SDS011;39837;47.630;18.822;2022-08-19T17:06:49;10.52;;;1.75;;